sensor_id;sensor_type;location;lat;lon;timestamp;pressure;altitude;pressure_sealevel;temperature;humidity
14689;BME280;7432;48.728;9.154;2022-10-18T00:01:23;97491.56;;;13.07;100.00
14689;BME280;7432;48.728;9.154;2022-10-18T00:03:49;97494.28;;;13.05;100.00
14689;BME280;7432;48.728;9.154;2022-10-18T00:06:16;97491.69;;;13.05;100.00
14689;BME280;7432;48.728;9.154;2022-10-18T00:08:42;97498.63;;;13.05;100.00
14689;BME280;7432;48.728;9.154;2022-10-18T00:11:08;97497.81;;;13.04;100.00
14689;BME280;7432;48.728;9.154;2022-10-18T00:13:35;97501.34;;;13.03;100.00
14689;BME280;7432;48.728;9.154;2022-10-18T00:16:07;97487.94;;;13.00;100.00
14689;BME280;7432;48.728;9.154;2022-10-18T00:18:35;97492.63;;;13.04;100.00
14689;BME280;7432;48.728;9.154;2022-10-18T00:21:03;97495.06;;;13.06;100.00
14689;BME280;7432;48.728;9.154;2022-10-18T00:23:31;97500.56;;;13.03;100.00
14689;BME280;7432;48.728;9.154;2022-10-18T00:26:00;97490.50;;;13.00;100.00
14689;BME280;7432;48.728;9.154;2022-10-18T00:28:26;97500.84;;;13.00;100.00
14689;BME280;7432;48.728;9.154;2022-10-18T00:30:53;97505.03;;;13.01;100.00
14689;BME280;7432;48.728;9.154;2022-10-18T00:33:21;97505.03;;;13.01;100.00
14689;BME280;7432;48.728;9.154;2022-10-18T00:35:47;97495.81;;;12.98;100.00
14689;BME280;7432;48.728;9.154;2022-10-18T00:38:13;97494.50;;;12.94;100.00
14689;BME280;7432;48.728;9.154;2022-10-18T00:40:40;97499.38;;;12.97;100.00
14689;BME280;7432;48.728;9.154;2022-10-18T00:43:08;97500.84;;;13.00;100.00
14689;BME280;7432;48.728;9.154;2022-10-18T00:45:38;97499.88;;;13.01;100.00
14689;BME280;7432;48.728;9.154;2022-10-18T00:48:05;97502.31;;;13.02;100.00
14689;BME280;7432;48.728;9.154;2022-10-18T00:50:33;97495.06;;;13.06;100.00
14689;BME280;7432;48.728;9.154;2022-10-18T00:53:05;97489.78;;;13.07;100.00
14689;BME280;7432;48.728;9.154;2022-10-18T00:55:33;97487.72;;;13.11;100.00
14689;BME280;7432;48.728;9.154;2022-10-18T00:58:00;97490.34;;;13.19;100.00
14689;BME280;7432;48.728;9.154;2022-10-18T01:00:27;97490.84;;;13.23;100.00
14689;BME280;7432;48.728;9.154;2022-10-18T01:02:54;97490.75;;;13.32;100.00
14689;BME280;7432;48.728;9.154;2022-10-18T01:05:20;97496.28;;;13.37;100.00
14689;BME280;7432;48.728;9.154;2022-10-18T01:08:29;97491.94;;;13.38;100.00
14689;BME280;7432;48.728;9.154;2022-10-18T01:11:08;97497.09;;;13.38;100.00
14689;BME280;7432;48.728;9.154;2022-10-18T01:13:46;97495.03;;;13.41;100.00
14689;BME280;7432;48.728;9.154;2022-10-18T01:16:22;97492.78;;;13.46;100.00
14689;BME280;7432;48.728;9.154;2022-10-18T01:18:56;97484.56;;;13.51;100.00
14689;BME280;7432;48.728;9.154;2022-10-18T01:21:39;97490.38;;;13.53;100.00
14689;BME280;7432;48.728;9.154;2022-10-18T01:24:33;97487.19;;;13.59;100.00
14689;BME280;7432;48.728;9.154;2022-10-18T01:27:16;97485.25;;;13.61;100.00
14689;BME280;7432;48.728;9.154;2022-10-18T01:29:55;97483.16;;;13.64;100.00
14689;BME280;7432;48.728;9.154;2022-10-18T01:32:34;97488.84;;;13.68;100.00
14689;BME280;7432;48.728;9.154;2022-10-18T01:35:06;97486.09;;;13.70;100.00
14689;BME280;7432;48.728;9.154;2022-10-18T01:37:35;97472.22;;;13.71;100.00
14689;BME280;7432;48.728;9.154;2022-10-18T01:40:04;97486.16;;;13.86;100.00
14689;BME280;7432;48.728;9.154;2022-10-18T01:42:33;97491.56;;;13.92;100.00
14689;BME280;7432;48.728;9.154;2022-10-18T01:45:00;97491.41;;;14.02;100.00
14689;BME280;7432;48.728;9.154;2022-10-18T01:47:30;97488.50;;;14.05;100.00
14689;BME280;7432;48.728;9.154;2022-10-18T01:49:57;97478.66;;;14.08;100.00
14689;BME280;7432;48.728;9.154;2022-10-18T01:52:24;97479.47;;;14.09;100.00
14689;BME280;7432;48.728;9.154;2022-10-18T01:54:51;97476.72;;;14.10;100.00
14689;BME280;7432;48.728;9.154;2022-10-18T01:57:22;97483.84;;;14.16;100.00
14689;BME280;7432;48.728;9.154;2022-10-18T01:59:56;97484.38;;;14.20;100.00
14689;BME280;7432;48.728;9.154;2022-10-18T02:02:38;97487.44;;;14.23;100.00
14689;BME280;7432;48.728;9.154;2022-10-18T02:05:13;97482.41;;;14.22;100.00
14689;BME280;7432;48.728;9.154;2022-10-18T02:07:46;97478.69;;;14.24;100.00
14689;BME280;7432;48.728;9.154;2022-10-18T02:10:20;97476.78;;;14.35;98.60
14689;BME280;7432;48.728;9.154;2022-10-18T02:12:49;97482.16;;;14.33;98.25
14689;BME280;7432;48.728;9.154;2022-10-18T02:15:20;97475.34;;;14.32;98.75
14689;BME280;7432;48.728;9.154;2022-10-18T02:17:49;97479.38;;;14.35;98.12
14689;BME280;7432;48.728;9.154;2022-10-18T02:20:19;97479.72;;;14.32;97.13
14689;BME280;7432;48.728;9.154;2022-10-18T02:22:48;97480.72;;;14.39;96.52
14689;BME280;7432;48.728;9.154;2022-10-18T02:25:20;97480.38;;;14.42;96.47
14689;BME280;7432;48.728;9.154;2022-10-18T02:27:47;97483.31;;;14.47;95.81
14689;BME280;7432;48.728;9.154;2022-10-18T02:30:14;97480.72;;;14.47;96.82
14689;BME280;7432;48.728;9.154;2022-10-18T02:32:44;97482.50;;;14.46;97.58
14689;BME280;7432;48.728;9.154;2022-10-18T02:35:18;97474.06;;;14.44;97.55
14689;BME280;7432;48.728;9.154;2022-10-18T02:37:48;97476.81;;;14.43;98.01
14689;BME280;7432;48.728;9.154;2022-10-18T02:40:16;97478.44;;;14.44;98.12
14689;BME280;7432;48.728;9.154;2022-10-18T02:42:45;97467.13;;;14.45;98.07
14689;BME280;7432;48.728;9.154;2022-10-18T02:45:13;97464.19;;;14.40;98.56
14689;BME280;7432;48.728;9.154;2022-10-18T02:47:40;97461.94;;;14.45;98.60
14689;BME280;7432;48.728;9.154;2022-10-18T02:50:07;97470.66;;;14.44;98.62
14689;BME280;7432;48.728;9.154;2022-10-18T02:52:34;97463.06;;;14.42;98.35
14689;BME280;7432;48.728;9.154;2022-10-18T02:55:01;97468.06;;;14.44;98.41
14689;BME280;7432;48.728;9.154;2022-10-18T02:57:27;97469.84;;;14.43;98.81
14689;BME280;7432;48.728;9.154;2022-10-18T02:59:54;97466.63;;;14.41;98.48
14689;BME280;7432;48.728;9.154;2022-10-18T03:02:20;97472.44;;;14.43;98.55
14689;BME280;7432;48.728;9.154;2022-10-18T03:04:47;97464.97;;;14.40;98.85
14689;BME280;7432;48.728;9.154;2022-10-18T03:07:13;97462.72;;;14.37;98.83
14689;BME280;7432;48.728;9.154;2022-10-18T03:09:41;97461.91;;;14.37;98.92
14689;BME280;7432;48.728;9.154;2022-10-18T03:12:07;97464.03;;;14.41;98.44
14689;BME280;7432;48.728;9.154;2022-10-18T03:14:34;97467.44;;;14.42;98.69
14689;BME280;7432;48.728;9.154;2022-10-18T03:17:00;97468.38;;;14.41;98.57
14689;BME280;7432;48.728;9.154;2022-10-18T03:19:27;97467.44;;;14.42;98.67
14689;BME280;7432;48.728;9.154;2022-10-18T03:21:53;97471.47;;;14.44;98.04
14689;BME280;7432;48.728;9.154;2022-10-18T03:24:20;97469.22;;;14.49;97.35
14689;BME280;7432;48.728;9.154;2022-10-18T03:26:47;97468.25;;;14.50;97.18
14689;BME280;7432;48.728;9.154;2022-10-18T03:29:14;97465.00;;;14.48;97.42
14689;BME280;7432;48.728;9.154;2022-10-18T03:31:40;97460.81;;;14.55;96.09
14689;BME280;7432;48.728;9.154;2022-10-18T03:34:07;97461.63;;;14.56;94.65
14689;BME280;7432;48.728;9.154;2022-10-18T03:36:33;97459.66;;;14.58;94.42
14689;BME280;7432;48.728;9.154;2022-10-18T03:39:00;97460.63;;;14.57;94.71
14689;BME280;7432;48.728;9.154;2022-10-18T03:41:27;97459.16;;;14.54;94.56
14689;BME280;7432;48.728;9.154;2022-10-18T03:43:54;97462.75;;;14.53;94.89
14689;BME280;7432;48.728;9.154;2022-10-18T03:46:21;97452.53;;;14.52;94.59
14689;BME280;7432;48.728;9.154;2022-10-18T03:48:47;97452.84;;;14.49;95.20
14689;BME280;7432;48.728;9.154;2022-10-18T03:51:13;97450.25;;;14.49;95.64
14689;BME280;7432;48.728;9.154;2022-10-18T03:53:40;97451.38;;;14.46;96.06
14689;BME280;7432;48.728;9.154;2022-10-18T03:56:06;97448.81;;;14.46;95.92
14689;BME280;7432;48.728;9.154;2022-10-18T03:58:33;97456.41;;;14.40;96.01
14689;BME280;7432;48.728;9.154;2022-10-18T04:01:00;97463.06;;;14.34;96.23
14689;BME280;7432;48.728;9.154;2022-10-18T04:03:27;97469.38;;;14.32;96.85
14689;BME280;7432;48.728;9.154;2022-10-18T04:05:53;97469.78;;;14.27;97.18
14689;BME280;7432;48.728;9.154;2022-10-18T04:08:20;97463.97;;;14.25;96.98
14689;BME280;7432;48.728;9.154;2022-10-18T04:10:46;97460.72;;;14.15;97.27
14689;BME280;7432;48.728;9.154;2022-10-18T04:13:13;97465.06;;;14.06;97.02
14689;BME280;7432;48.728;9.154;2022-10-18T04:15:39;97466.81;;;13.98;97.22
14689;BME280;7432;48.728;9.154;2022-10-18T04:18:07;97459.19;;;13.96;97.84
14689;BME280;7432;48.728;9.154;2022-10-18T04:20:33;97463.69;;;13.86;98.20
14689;BME280;7432;48.728;9.154;2022-10-18T04:22:59;97466.88;;;13.80;97.93
14689;BME280;7432;48.728;9.154;2022-10-18T04:25:26;97471.91;;;13.74;98.23
14689;BME280;7432;48.728;9.154;2022-10-18T04:27:53;97473.81;;;13.72;98.51
14689;BME280;7432;48.728;9.154;2022-10-18T04:30:19;97475.09;;;13.68;99.12
14689;BME280;7432;48.728;9.154;2022-10-18T04:32:46;97466.47;;;13.59;100.00
14689;BME280;7432;48.728;9.154;2022-10-18T04:35:14;97475.03;;;13.51;99.68
14689;BME280;7432;48.728;9.154;2022-10-18T04:37:40;97476.97;;;13.49;100.00
14689;BME280;7432;48.728;9.154;2022-10-18T04:40:08;97471.09;;;13.47;100.00
14689;BME280;7432;48.728;9.154;2022-10-18T04:42:34;97478.38;;;13.44;99.89
14689;BME280;7432;48.728;9.154;2022-10-18T04:45:00;97478.81;;;13.39;100.00
14689;BME280;7432;48.728;9.154;2022-10-18T04:47:27;97485.28;;;13.35;100.00
14689;BME280;7432;48.728;9.154;2022-10-18T04:49:53;97487.19;;;13.33;100.00
14689;BME280;7432;48.728;9.154;2022-10-18T04:52:21;97490.25;;;13.29;100.00
14689;BME280;7432;48.728;9.154;2022-10-18T04:54:47;97483.47;;;13.28;100.00
14689;BME280;7432;48.728;9.154;2022-10-18T04:57:14;97485.25;;;13.27;100.00
14689;BME280;7432;48.728;9.154;2022-10-18T04:59:40;97487.00;;;13.27;100.00
14689;BME280;7432;48.728;9.154;2022-10-18T05:02:07;97481.19;;;13.25;100.00
14689;BME280;7432;48.728;9.154;2022-10-18T05:04:33;97476.78;;;13.25;100.00
14689;BME280;7432;48.728;9.154;2022-10-18T05:06:59;97483.31;;;13.29;100.00
14689;BME280;7432;48.728;9.154;2022-10-18T05:09:28;97472.84;;;13.39;100.00
14689;BME280;7432;48.728;9.154;2022-10-18T05:11:54;97471.88;;;13.40;100.00
14689;BME280;7432;48.728;9.154;2022-10-18T05:14:21;97475.13;;;13.42;100.00
14689;BME280;7432;48.728;9.154;2022-10-18T05:16:47;97479.38;;;13.51;100.00
14689;BME280;7432;48.728;9.154;2022-10-18T05:19:13;97485.72;;;13.56;100.00
14689;BME280;7432;48.728;9.154;2022-10-18T05:21:40;97488.66;;;13.61;100.00
14689;BME280;7432;48.728;9.154;2022-10-18T05:24:06;97486.56;;;13.65;100.00
14689;BME280;7432;48.728;9.154;2022-10-18T05:26:36;97483.81;;;13.66;100.00
14689;BME280;7432;48.728;9.154;2022-10-18T05:29:02;97474.44;;;13.65;100.00
14689;BME280;7432;48.728;9.154;2022-10-18T05:31:29;97473.13;;;13.61;100.00
14689;BME280;7432;48.728;9.154;2022-10-18T05:33:55;97475.19;;;13.58;100.00
14689;BME280;7432;48.728;9.154;2022-10-18T05:36:21;97473.09;;;13.53;100.00
14689;BME280;7432;48.728;9.154;2022-10-18T05:38:50;97469.69;;;13.53;100.00
14689;BME280;7432;48.728;9.154;2022-10-18T05:41:17;97473.91;;;13.54;100.00
14689;BME280;7432;48.728;9.154;2022-10-18T05:43:45;97478.72;;;13.49;100.00
14689;BME280;7432;48.728;9.154;2022-10-18T05:46:11;97476.44;;;13.46;100.00
14689;BME280;7432;48.728;9.154;2022-10-18T05:48:38;97471.28;;;13.46;100.00
14689;BME280;7432;48.728;9.154;2022-10-18T05:51:04;97481.31;;;13.49;100.00
14689;BME280;7432;48.728;9.154;2022-10-18T05:53:31;97486.31;;;13.50;100.00
14689;BME280;7432;48.728;9.154;2022-10-18T05:55:59;97477.63;;;13.51;100.00
14689;BME280;7432;48.728;9.154;2022-10-18T05:58:25;97478.91;;;13.55;100.00
14689;BME280;7432;48.728;9.154;2022-10-18T06:00:53;97481.19;;;13.58;100.00
14689;BME280;7432;48.728;9.154;2022-10-18T06:03:19;97486.22;;;13.60;100.00
14689;BME280;7432;48.728;9.154;2022-10-18T06:05:46;97475.56;;;13.63;100.00
14689;BME280;7432;48.728;9.154;2022-10-18T06:08:12;97479.31;;;13.69;100.00
14689;BME280;7432;48.728;9.154;2022-10-18T06:10:38;97483.22;;;13.73;100.00
14689;BME280;7432;48.728;9.154;2022-10-18T06:13:05;97481.13;;;13.76;100.00
14689;BME280;7432;48.728;9.154;2022-10-18T06:15:31;97473.88;;;13.80;100.00
14689;BME280;7432;48.728;9.154;2022-10-18T06:17:59;97485.03;;;13.88;100.00
14689;BME280;7432;48.728;9.154;2022-10-18T06:20:25;97480.88;;;13.95;100.00
14689;BME280;7432;48.728;9.154;2022-10-18T06:22:52;97477.34;;;14.04;100.00
14689;BME280;7432;48.728;9.154;2022-10-18T06:25:18;97481.25;;;14.16;100.00
14689;BME280;7432;48.728;9.154;2022-10-18T06:27:45;97484.13;;;14.39;100.00
14689;BME280;7432;48.728;9.154;2022-10-18T06:30:11;97490.59;;;14.67;99.28
14689;BME280;7432;48.728;9.154;2022-10-18T06:32:37;97494.38;;;14.97;98.69
14689;BME280;7432;48.728;9.154;2022-10-18T06:35:06;97495.47;;;15.27;96.88
14689;BME280;7432;48.728;9.154;2022-10-18T06:37:32;97501.63;;;15.50;95.57
14689;BME280;7432;48.728;9.154;2022-10-18T06:39:59;97498.31;;;15.72;94.67
14689;BME280;7432;48.728;9.154;2022-10-18T06:42:26;97495.34;;;15.91;92.65
14689;BME280;7432;48.728;9.154;2022-10-18T06:44:52;97493.31;;;16.01;91.92
14689;BME280;7432;48.728;9.154;2022-10-18T06:47:18;97505.03;;;16.06;91.62
14689;BME280;7432;48.728;9.154;2022-10-18T06:49:45;97503.34;;;16.13;91.03
14689;BME280;7432;48.728;9.154;2022-10-18T06:52:12;97498.16;;;16.13;90.19
14689;BME280;7432;48.728;9.154;2022-10-18T06:54:41;97501.88;;;16.18;89.31
14689;BME280;7432;48.728;9.154;2022-10-18T06:57:08;97504.38;;;16.34;88.43
14689;BME280;7432;48.728;9.154;2022-10-18T06:59:34;97503.34;;;16.43;87.16
14689;BME280;7432;48.728;9.154;2022-10-18T07:02:00;97507.41;;;16.46;86.94
14689;BME280;7432;48.728;9.154;2022-10-18T07:04:27;97512.38;;;16.64;85.12
14689;BME280;7432;48.728;9.154;2022-10-18T07:06:53;97508.28;;;16.69;84.64
14689;BME280;7432;48.728;9.154;2022-10-18T07:09:21;97513.47;;;16.69;85.50
14689;BME280;7432;48.728;9.154;2022-10-18T07:11:48;97511.16;;;16.74;85.07
14689;BME280;7432;48.728;9.154;2022-10-18T07:14:14;97504.63;;;16.78;85.34
14689;BME280;7432;48.728;9.154;2022-10-18T07:16:40;97507.22;;;16.78;84.91
14689;BME280;7432;48.728;9.154;2022-10-18T07:19:07;97510.97;;;16.76;84.89
14689;BME280;7432;48.728;9.154;2022-10-18T07:21:33;97525.44;;;16.78;84.31
14689;BME280;7432;48.728;9.154;2022-10-18T07:23:59;97513.38;;;16.85;83.94
14689;BME280;7432;48.728;9.154;2022-10-18T07:26:29;97522.75;;;16.86;84.25
14689;BME280;7432;48.728;9.154;2022-10-18T07:28:57;97520.00;;;16.88;84.17
14689;BME280;7432;48.728;9.154;2022-10-18T07:31:24;97525.09;;;17.04;82.74
14689;BME280;7432;48.728;9.154;2022-10-18T07:33:51;97519.06;;;17.03;83.19
14689;BME280;7432;48.728;9.154;2022-10-18T07:36:18;97506.59;;;16.99;83.33
14689;BME280;7432;48.728;9.154;2022-10-18T07:38:46;97520.16;;;17.09;83.65
14689;BME280;7432;48.728;9.154;2022-10-18T07:41:13;97520.09;;;17.17;82.81
14689;BME280;7432;48.728;9.154;2022-10-18T07:43:46;97518.38;;;17.24;82.63
14689;BME280;7432;48.728;9.154;2022-10-18T07:46:14;97523.72;;;17.31;83.42
14689;BME280;7432;48.728;9.154;2022-10-18T07:48:40;97520.88;;;17.40;83.23
14689;BME280;7432;48.728;9.154;2022-10-18T07:51:07;97525.47;;;17.53;82.88
14689;BME280;7432;48.728;9.154;2022-10-18T07:53:34;97521.28;;;17.66;82.59
14689;BME280;7432;48.728;9.154;2022-10-18T07:56:03;97509.44;;;17.79;81.58
14689;BME280;7432;48.728;9.154;2022-10-18T07:58:30;97527.03;;;18.06;81.02
14689;BME280;7432;48.728;9.154;2022-10-18T08:01:00;97529.69;;;18.27;80.26
14689;BME280;7432;48.728;9.154;2022-10-18T08:03:27;97530.09;;;18.45;77.84
14689;BME280;7432;48.728;9.154;2022-10-18T08:05:54;97531.16;;;18.65;77.77
14689;BME280;7432;48.728;9.154;2022-10-18T08:08:21;97537.25;;;18.93;76.38
14689;BME280;7432;48.728;9.154;2022-10-18T08:10:48;97538.09;;;19.15;76.40
14689;BME280;7432;48.728;9.154;2022-10-18T08:13:15;97540.22;;;19.33;75.38
14689;BME280;7432;48.728;9.154;2022-10-18T08:15:42;97542.25;;;19.37;74.44
14689;BME280;7432;48.728;9.154;2022-10-18T08:18:10;97543.91;;;19.38;74.98
14689;BME280;7432;48.728;9.154;2022-10-18T08:20:36;97544.88;;;19.37;73.22
14689;BME280;7432;48.728;9.154;2022-10-18T08:23:03;97545.22;;;19.28;74.12
14689;BME280;7432;48.728;9.154;2022-10-18T08:25:30;97556.78;;;18.98;74.68
14689;BME280;7432;48.728;9.154;2022-10-18T08:27:56;97536.41;;;18.86;75.66
14689;BME280;7432;48.728;9.154;2022-10-18T08:30:23;97547.53;;;18.95;76.14
14689;BME280;7432;48.728;9.154;2022-10-18T08:32:49;97550.50;;;19.13;75.02
14689;BME280;7432;48.728;9.154;2022-10-18T08:35:17;97542.34;;;19.23;74.27
14689;BME280;7432;48.728;9.154;2022-10-18T08:37:43;97554.97;;;19.40;73.25
14689;BME280;7432;48.728;9.154;2022-10-18T08:40:12;97558.84;;;19.44;73.03
14689;BME280;7432;48.728;9.154;2022-10-18T08:42:49;97553.50;;;19.59;72.51
14689;BME280;7432;48.728;9.154;2022-10-18T08:45:22;97553.84;;;19.77;72.93
14689;BME280;7432;48.728;9.154;2022-10-18T08:47:50;97556.59;;;19.97;71.18
14689;BME280;7432;48.728;9.154;2022-10-18T08:50:21;97558.69;;;20.15;70.60
14689;BME280;7432;48.728;9.154;2022-10-18T08:52:52;97560.81;;;20.32;69.57
14689;BME280;7432;48.728;9.154;2022-10-18T08:55:26;97563.56;;;20.72;68.61
14689;BME280;7432;48.728;9.154;2022-10-18T08:57:56;97566.41;;;20.83;68.04
14689;BME280;7432;48.728;9.154;2022-10-18T09:00:24;97572.16;;;21.13;67.37
14689;BME280;7432;48.728;9.154;2022-10-18T09:03:14;97570.75;;;21.30;67.06
14689;BME280;7432;48.728;9.154;2022-10-18T09:05:59;97568.72;;;21.19;65.78
14689;BME280;7432;48.728;9.154;2022-10-18T09:08:38;97566.03;;;20.99;66.90
14689;BME280;7432;48.728;9.154;2022-10-18T09:11:28;97572.91;;;21.00;67.43
14689;BME280;7432;48.728;9.154;2022-10-18T09:14:34;97568.13;;;21.17;67.33
14689;BME280;7432;48.728;9.154;2022-10-18T09:17:07;97571.38;;;21.25;66.60
14689;BME280;7432;48.728;9.154;2022-10-18T09:19:49;97572.16;;;21.46;66.43
14689;BME280;7432;48.728;9.154;2022-10-18T09:22:31;97569.16;;;21.49;65.17
14689;BME280;7432;48.728;9.154;2022-10-18T09:25:10;97568.53;;;21.47;65.14
14689;BME280;7432;48.728;9.154;2022-10-18T09:27:56;97573.19;;;21.45;65.78
14689;BME280;7432;48.728;9.154;2022-10-18T09:30:39;97573.75;;;21.20;66.56
14689;BME280;7432;48.728;9.154;2022-10-18T09:33:19;97569.31;;;21.08;66.49
14689;BME280;7432;48.728;9.154;2022-10-18T09:35:52;97573.16;;;21.18;65.55
14689;BME280;7432;48.728;9.154;2022-10-18T09:38:23;97567.34;;;21.49;64.35
14689;BME280;7432;48.728;9.154;2022-10-18T09:40:54;97570.53;;;21.71;63.11
14689;BME280;7432;48.728;9.154;2022-10-18T09:43:25;97558.84;;;21.73;62.83
14689;BME280;7432;48.728;9.154;2022-10-18T09:45:57;97569.91;;;22.08;61.84
14689;BME280;7432;48.728;9.154;2022-10-18T09:48:27;97572.28;;;22.16;61.14
14689;BME280;7432;48.728;9.154;2022-10-18T09:50:56;97572.06;;;22.24;61.19
14689;BME280;7432;48.728;9.154;2022-10-18T09:53:31;97569.75;;;21.90;61.07
14689;BME280;7432;48.728;9.154;2022-10-18T09:56:02;97580.03;;;21.65;62.74
14689;BME280;7432;48.728;9.154;2022-10-18T09:58:39;97569.75;;;21.31;63.30
14689;BME280;7432;48.728;9.154;2022-10-18T10:01:07;97574.19;;;21.37;64.20
14689;BME280;7432;48.728;9.154;2022-10-18T10:03:34;97583.88;;;21.30;64.03
14689;BME280;7432;48.728;9.154;2022-10-18T10:06:02;97594.53;;;21.35;63.85
14689;BME280;7432;48.728;9.154;2022-10-18T10:08:42;97584.28;;;21.66;63.34
14689;BME280;7432;48.728;9.154;2022-10-18T10:11:25;97577.94;;;22.20;61.49
14689;BME280;7432;48.728;9.154;2022-10-18T10:13:56;97587.47;;;22.72;60.73
14689;BME280;7432;48.728;9.154;2022-10-18T10:16:22;97594.41;;;22.97;61.32
14689;BME280;7432;48.728;9.154;2022-10-18T10:18:51;97587.78;;;22.95;61.97
14689;BME280;7432;48.728;9.154;2022-10-18T10:21:19;97587.78;;;22.37;62.73
14689;BME280;7432;48.728;9.154;2022-10-18T10:23:51;97582.16;;;22.27;63.62
14689;BME280;7432;48.728;9.154;2022-10-18T10:26:21;97576.59;;;21.84;64.60
14689;BME280;7432;48.728;9.154;2022-10-18T10:28:48;97583.03;;;21.75;64.64
14689;BME280;7432;48.728;9.154;2022-10-18T10:31:17;97583.66;;;21.64;65.63
14689;BME280;7432;48.728;9.154;2022-10-18T10:33:46;97577.00;;;21.62;66.63
14689;BME280;7432;48.728;9.154;2022-10-18T10:36:16;97584.88;;;21.49;66.99
14689;BME280;7432;48.728;9.154;2022-10-18T10:38:42;97581.44;;;21.55;66.22
14689;BME280;7432;48.728;9.154;2022-10-18T10:41:17;97585.88;;;21.54;66.84
14689;BME280;7432;48.728;9.154;2022-10-18T10:43:44;97582.47;;;21.47;67.40
14689;BME280;7432;48.728;9.154;2022-10-18T10:46:12;97587.69;;;21.34;67.66
14689;BME280;7432;48.728;9.154;2022-10-18T10:48:46;97580.00;;;21.13;67.27
14689;BME280;7432;48.728;9.154;2022-10-18T10:51:15;97581.75;;;20.99;68.39
14689;BME280;7432;48.728;9.154;2022-10-18T10:53:46;97582.16;;;20.96;68.09
14689;BME280;7432;48.728;9.154;2022-10-18T10:56:21;97576.34;;;21.01;68.28
14689;BME280;7432;48.728;9.154;2022-10-18T10:58:48;97577.72;;;20.97;68.02
14689;BME280;7432;48.728;9.154;2022-10-18T11:01:22;97579.59;;;21.16;68.33
14689;BME280;7432;48.728;9.154;2022-10-18T11:03:50;97577.41;;;21.33;68.26
14689;BME280;7432;48.728;9.154;2022-10-18T11:06:38;97577.22;;;21.60;67.18
14689;BME280;7432;48.728;9.154;2022-10-18T11:09:14;97578.59;;;21.82;65.92
14689;BME280;7432;48.728;9.154;2022-10-18T11:11:51;97573.69;;;22.19;64.01
14689;BME280;7432;48.728;9.154;2022-10-18T11:14:24;97573.91;;;22.17;64.17
14689;BME280;7432;48.728;9.154;2022-10-18T11:16:56;97570.59;;;22.41;64.23
14689;BME280;7432;48.728;9.154;2022-10-18T11:19:31;97562.19;;;22.13;64.30
14689;BME280;7432;48.728;9.154;2022-10-18T11:22:01;97572.56;;;21.95;64.78
14689;BME280;7432;48.728;9.154;2022-10-18T11:24:30;97573.75;;;21.86;65.22
14689;BME280;7432;48.728;9.154;2022-10-18T11:27:03;97576.19;;;21.74;64.65
14689;BME280;7432;48.728;9.154;2022-10-18T11:29:48;97568.94;;;21.50;65.87
14689;BME280;7432;48.728;9.154;2022-10-18T11:32:25;97566.13;;;21.32;66.86
14689;BME280;7432;48.728;9.154;2022-10-18T11:35:11;97564.69;;;21.23;67.26
14689;BME280;7432;48.728;9.154;2022-10-18T11:38:01;97564.09;;;21.34;66.27
14689;BME280;7432;48.728;9.154;2022-10-18T11:40:41;97570.34;;;21.33;66.98
14689;BME280;7432;48.728;9.154;2022-10-18T11:43:15;97555.63;;;21.65;65.95
14689;BME280;7432;48.728;9.154;2022-10-18T11:45:53;97567.53;;;21.87;64.43
14689;BME280;7432;48.728;9.154;2022-10-18T11:48:38;97575.00;;;21.97;64.61
14689;BME280;7432;48.728;9.154;2022-10-18T11:51:09;97576.59;;;21.45;66.60
14689;BME280;7432;48.728;9.154;2022-10-18T11:53:47;97573.56;;;21.09;67.77
14689;BME280;7432;48.728;9.154;2022-10-18T11:56:22;97563.78;;;20.70;69.02
14689;BME280;7432;48.728;9.154;2022-10-18T11:59:04;97563.06;;;20.42;69.88
14689;BME280;7432;48.728;9.154;2022-10-18T12:01:38;97563.75;;;20.23;70.85
14689;BME280;7432;48.728;9.154;2022-10-18T12:04:11;97561.53;;;20.20;71.20
14689;BME280;7432;48.728;9.154;2022-10-18T12:06:41;97550.75;;;20.29;71.44
14689;BME280;7432;48.728;9.154;2022-10-18T12:09:14;97553.19;;;20.44;71.01
14689;BME280;7432;48.728;9.154;2022-10-18T12:11:45;97546.53;;;20.35;71.45
14689;BME280;7432;48.728;9.154;2022-10-18T12:14:21;97549.41;;;20.46;71.48
14689;BME280;7432;48.728;9.154;2022-10-18T12:16:49;97544.59;;;20.63;71.04
14689;BME280;7432;48.728;9.154;2022-10-18T12:19:18;97549.72;;;20.97;69.80
14689;BME280;7432;48.728;9.154;2022-10-18T12:21:46;97550.41;;;21.25;69.86
14689;BME280;7432;48.728;9.154;2022-10-18T12:24:15;97551.41;;;21.44;69.43
14689;BME280;7432;48.728;9.154;2022-10-18T12:26:44;97557.25;;;21.66;67.76
14689;BME280;7432;48.728;9.154;2022-10-18T12:29:19;97546.09;;;21.83;66.90
14689;BME280;7432;48.728;9.154;2022-10-18T12:31:50;97548.75;;;21.70;66.91
14689;BME280;7432;48.728;9.154;2022-10-18T12:34:27;97524.41;;;21.31;66.23
14689;BME280;7432;48.728;9.154;2022-10-18T12:37:14;97543.53;;;21.18;67.13
14689;BME280;7432;48.728;9.154;2022-10-18T12:39:47;97538.09;;;21.13;68.38
14689;BME280;7432;48.728;9.154;2022-10-18T12:42:20;97536.88;;;21.09;67.70
14689;BME280;7432;48.728;9.154;2022-10-18T12:44:59;97536.06;;;21.21;67.87
14689;BME280;7432;48.728;9.154;2022-10-18T12:47:27;97531.25;;;21.25;67.24
14689;BME280;7432;48.728;9.154;2022-10-18T12:49:56;97539.09;;;21.18;67.17
14689;BME280;7432;48.728;9.154;2022-10-18T12:52:25;97539.50;;;21.15;67.54
14689;BME280;7432;48.728;9.154;2022-10-18T12:55:02;97537.06;;;21.20;66.55
14689;BME280;7432;48.728;9.154;2022-10-18T12:58:00;97531.03;;;21.26;65.84
14689;BME280;7432;48.728;9.154;2022-10-18T13:00:55;97533.47;;;21.21;65.81
14689;BME280;7432;48.728;9.154;2022-10-18T13:03:49;97539.28;;;21.23;66.60
14689;BME280;7432;48.728;9.154;2022-10-18T13:06:16;97532.88;;;21.19;67.94
14689;BME280;7432;48.728;9.154;2022-10-18T13:08:43;97530.63;;;21.10;67.47
14689;BME280;7432;48.728;9.154;2022-10-18T13:14:24;97538.41;;;20.90;68.64
14689;BME280;7432;48.728;9.154;2022-10-18T13:17:02;97529.94;;;20.75;68.93
14689;BME280;7432;48.728;9.154;2022-10-18T13:19:38;97539.22;;;20.78;68.28
14689;BME280;7432;48.728;9.154;2022-10-18T13:22:18;97537.81;;;20.88;68.94
14689;BME280;7432;48.728;9.154;2022-10-18T13:24:56;97537.66;;;21.03;69.67
14689;BME280;7432;48.728;9.154;2022-10-18T13:27:32;97538.91;;;21.13;69.83